sensor_id;sensor_type;location;lat;lon;timestamp;temperature;humidity
75155;HTU21D;63735;44.730;37.818;2023-05-29T00:00:04;20.37;80.22
75155;HTU21D;63735;44.730;37.818;2023-05-29T00:02:35;20.46;80.12
75155;HTU21D;63735;44.730;37.818;2023-05-29T00:05:01;20.58;79.95
75155;HTU21D;63735;44.730;37.818;2023-05-29T00:07:31;20.65;79.80
75155;HTU21D;63735;44.730;37.818;2023-05-29T00:10:00;20.71;79.62
75155;HTU21D;63735;44.730;37.818;2023-05-29T00:12:26;20.77;79.51
75155;HTU21D;63735;44.730;37.818;2023-05-29T00:14:52;20.83;79.46
75155;HTU21D;63735;44.730;37.818;2023-05-29T00:17:18;20.87;79.39
75155;HTU21D;63735;44.730;37.818;2023-05-29T00:19:44;20.89;79.28
75155;HTU21D;63735;44.730;37.818;2023-05-29T00:22:10;20.93;79.21
75155;HTU21D;63735;44.730;37.818;2023-05-29T00:24:36;20.95;79.12
75155;HTU21D;63735;44.730;37.818;2023-05-29T00:27:02;21.01;79.06
75155;HTU21D;63735;44.730;37.818;2023-05-29T00:29:27;21.04;78.96
75155;HTU21D;63735;44.730;37.818;2023-05-29T00:32:19;21.06;78.90
75155;HTU21D;63735;44.730;37.818;2023-05-29T00:35:07;21.07;78.71
75155;HTU21D;63735;44.730;37.818;2023-05-29T00:37:34;21.08;78.66
75155;HTU21D;63735;44.730;37.818;2023-05-29T00:40:00;21.11;78.57
75155;HTU21D;63735;44.730;37.818;2023-05-29T00:42:26;21.14;78.48
75155;HTU21D;63735;44.730;37.818;2023-05-29T00:44:52;21.18;78.40
75155;HTU21D;63735;44.730;37.818;2023-05-29T00:47:18;21.18;78.32
75155;HTU21D;63735;44.730;37.818;2023-05-29T00:49:44;21.18;78.27
75155;HTU21D;63735;44.730;37.818;2023-05-29T00:52:11;21.17;78.24
75155;HTU21D;63735;44.730;37.818;2023-05-29T00:54:38;21.15;78.23
75155;HTU21D;63735;44.730;37.818;2023-05-29T00:57:04;21.14;78.21
75155;HTU21D;63735;44.730;37.818;2023-05-29T00:59:32;21.14;78.19
75155;HTU21D;63735;44.730;37.818;2023-05-29T01:02:01;21.14;78.13
75155;HTU21D;63735;44.730;37.818;2023-05-29T01:04:28;21.15;78.05
75155;HTU21D;63735;44.730;37.818;2023-05-29T01:06:53;21.15;78.04
75155;HTU21D;63735;44.730;37.818;2023-05-29T01:09:21;21.16;78.05
75155;HTU21D;63735;44.730;37.818;2023-05-29T01:12:02;21.17;78.12
75155;HTU21D;63735;44.730;37.818;2023-05-29T01:17:46;21.19;78.31
75155;HTU21D;63735;44.730;37.818;2023-05-29T01:20:33;21.16;78.40
75155;HTU21D;63735;44.730;37.818;2023-05-29T01:28:52;20.94;78.72
75155;HTU21D;63735;44.730;37.818;2023-05-29T01:31:22;20.89;78.78
75155;HTU21D;63735;44.730;37.818;2023-05-29T01:33:54;20.85;78.81
75155;HTU21D;63735;44.730;37.818;2023-05-29T01:36:20;20.83;78.84
75155;HTU21D;63735;44.730;37.818;2023-05-29T01:38:50;20.80;78.87
75155;HTU21D;63735;44.730;37.818;2023-05-29T01:41:17;20.83;78.87
75155;HTU21D;63735;44.730;37.818;2023-05-29T01:43:44;20.85;78.85
75155;HTU21D;63735;44.730;37.818;2023-05-29T01:46:33;20.90;78.82
75155;HTU21D;63735;44.730;37.818;2023-05-29T01:48:59;20.94;78.64
75155;HTU21D;63735;44.730;37.818;2023-05-29T01:51:25;20.96;78.43
75155;HTU21D;63735;44.730;37.818;2023-05-29T01:53:51;20.99;78.34
75155;HTU21D;63735;44.730;37.818;2023-05-29T01:56:17;21.01;78.29
75155;HTU21D;63735;44.730;37.818;2023-05-29T01:58:44;21.00;78.29
75155;HTU21D;63735;44.730;37.818;2023-05-29T02:01:11;21.01;78.23
75155;HTU21D;63735;44.730;37.818;2023-05-29T02:03:37;20.99;78.13
75155;HTU21D;63735;44.730;37.818;2023-05-29T02:06:27;20.98;78.21
75155;HTU21D;63735;44.730;37.818;2023-05-29T02:08:53;20.96;78.17
75155;HTU21D;63735;44.730;37.818;2023-05-29T02:11:19;20.92;78.24
75155;HTU21D;63735;44.730;37.818;2023-05-29T02:13:46;20.89;78.35
75155;HTU21D;63735;44.730;37.818;2023-05-29T02:16:12;20.87;78.48
75155;HTU21D;63735;44.730;37.818;2023-05-29T02:18:38;20.83;78.66
75155;HTU21D;63735;44.730;37.818;2023-05-29T02:21:05;20.80;78.86
75155;HTU21D;63735;44.730;37.818;2023-05-29T02:23:32;20.75;78.94
75155;HTU21D;63735;44.730;37.818;2023-05-29T02:25:58;20.72;79.21
75155;HTU21D;63735;44.730;37.818;2023-05-29T02:28:24;20.72;79.23
75155;HTU21D;63735;44.730;37.818;2023-05-29T02:30:50;20.71;79.24
75155;HTU21D;63735;44.730;37.818;2023-05-29T02:33:16;20.71;79.17
75155;HTU21D;63735;44.730;37.818;2023-05-29T02:35:42;20.73;79.08
75155;HTU21D;63735;44.730;37.818;2023-05-29T02:38:08;20.79;78.93
75155;HTU21D;63735;44.730;37.818;2023-05-29T02:40:34;20.85;78.71
75155;HTU21D;63735;44.730;37.818;2023-05-29T02:43:00;20.92;78.45
75155;HTU21D;63735;44.730;37.818;2023-05-29T02:45:26;20.99;78.15
75155;HTU21D;63735;44.730;37.818;2023-05-29T02:50:57;21.13;77.12
75155;HTU21D;63735;44.730;37.818;2023-05-29T02:53:23;21.18;76.63
75155;HTU21D;63735;44.730;37.818;2023-05-29T02:55:49;21.20;76.25
75155;HTU21D;63735;44.730;37.818;2023-05-29T02:58:16;21.24;75.77
75155;HTU21D;63735;44.730;37.818;2023-05-29T03:00:42;21.27;75.13
75155;HTU21D;63735;44.730;37.818;2023-05-29T03:03:08;21.30;74.67
75155;HTU21D;63735;44.730;37.818;2023-05-29T03:05:38;21.33;74.35
75155;HTU21D;63735;44.730;37.818;2023-05-29T03:08:04;21.36;74.09
75155;HTU21D;63735;44.730;37.818;2023-05-29T03:10:30;21.35;73.88
75155;HTU21D;63735;44.730;37.818;2023-05-29T03:12:56;21.36;73.57
75155;HTU21D;63735;44.730;37.818;2023-05-29T03:15:22;21.39;73.31
75155;HTU21D;63735;44.730;37.818;2023-05-29T03:17:48;21.44;72.77
75155;HTU21D;63735;44.730;37.818;2023-05-29T03:20:18;21.50;72.35
75155;HTU21D;63735;44.730;37.818;2023-05-29T03:22:44;21.55;71.93
75155;HTU21D;63735;44.730;37.818;2023-05-29T03:25:10;21.61;71.69
75155;HTU21D;63735;44.730;37.818;2023-05-29T03:27:36;21.68;70.88
75155;HTU21D;63735;44.730;37.818;2023-05-29T03:30:11;21.76;70.58
75155;HTU21D;63735;44.730;37.818;2023-05-29T03:32:37;21.78;70.34
75155;HTU21D;63735;44.730;37.818;2023-05-29T03:35:04;21.78;70.28
75155;HTU21D;63735;44.730;37.818;2023-05-29T03:37:30;21.76;70.19
75155;HTU21D;63735;44.730;37.818;2023-05-29T03:39:56;21.75;70.12
75155;HTU21D;63735;44.730;37.818;2023-05-29T03:42:23;21.74;70.23
75155;HTU21D;63735;44.730;37.818;2023-05-29T03:44:51;21.70;70.23
75155;HTU21D;63735;44.730;37.818;2023-05-29T03:47:17;21.67;70.19
75155;HTU21D;63735;44.730;37.818;2023-05-29T03:49:44;21.64;70.28
75155;HTU21D;63735;44.730;37.818;2023-05-29T03:52:11;21.62;70.41
75155;HTU21D;63735;44.730;37.818;2023-05-29T03:54:37;21.61;70.32
75155;HTU21D;63735;44.730;37.818;2023-05-29T03:57:03;21.62;70.38
75155;HTU21D;63735;44.730;37.818;2023-05-29T03:59:29;21.63;70.45
75155;HTU21D;63735;44.730;37.818;2023-05-29T04:04:41;21.72;70.23
75155;HTU21D;63735;44.730;37.818;2023-05-29T04:07:08;21.78;70.11
75155;HTU21D;63735;44.730;37.818;2023-05-29T04:09:34;21.80;70.10
75155;HTU21D;63735;44.730;37.818;2023-05-29T04:12:00;21.79;70.09
75155;HTU21D;63735;44.730;37.818;2023-05-29T04:14:28;21.81;70.04
75155;HTU21D;63735;44.730;37.818;2023-05-29T04:16:55;21.84;69.98
75155;HTU21D;63735;44.730;37.818;2023-05-29T04:19:23;21.87;69.96
75155;HTU21D;63735;44.730;37.818;2023-05-29T04:21:49;21.90;69.89
75155;HTU21D;63735;44.730;37.818;2023-05-29T04:24:15;21.92;69.78
75155;HTU21D;63735;44.730;37.818;2023-05-29T04:26:52;21.93;69.74
75155;HTU21D;63735;44.730;37.818;2023-05-29T04:29:18;21.95;69.61
75155;HTU21D;63735;44.730;37.818;2023-05-29T04:31:45;21.95;69.55
75155;HTU21D;63735;44.730;37.818;2023-05-29T04:34:14;21.95;69.38
75155;HTU21D;63735;44.730;37.818;2023-05-29T04:36:42;21.96;69.38
75155;HTU21D;63735;44.730;37.818;2023-05-29T04:39:12;21.97;69.36
75155;HTU21D;63735;44.730;37.818;2023-05-29T04:41:42;22.01;69.32
75155;HTU21D;63735;44.730;37.818;2023-05-29T04:44:12;22.05;69.10
75155;HTU21D;63735;44.730;37.818;2023-05-29T04:46:44;22.09;69.05
75155;HTU21D;63735;44.730;37.818;2023-05-29T04:49:11;22.12;69.03
75155;HTU21D;63735;44.730;37.818;2023-05-29T04:51:39;22.17;68.96
75155;HTU21D;63735;44.730;37.818;2023-05-29T04:54:09;22.19;68.86
75155;HTU21D;63735;44.730;37.818;2023-05-29T04:56:38;22.23;68.75
75155;HTU21D;63735;44.730;37.818;2023-05-29T04:59:10;22.27;68.69
75155;HTU21D;63735;44.730;37.818;2023-05-29T05:01:36;22.31;68.61
75155;HTU21D;63735;44.730;37.818;2023-05-29T05:04:02;22.34;68.59
75155;HTU21D;63735;44.730;37.818;2023-05-29T05:06:28;22.33;68.73
75155;HTU21D;63735;44.730;37.818;2023-05-29T05:08:54;22.21;69.17
75155;HTU21D;63735;44.730;37.818;2023-05-29T05:11:22;22.02;69.80
75155;HTU21D;63735;44.730;37.818;2023-05-29T05:13:49;21.80;70.61
75155;HTU21D;63735;44.730;37.818;2023-05-29T05:16:16;21.59;71.29
75155;HTU21D;63735;44.730;37.818;2023-05-29T05:18:44;21.43;71.86
75155;HTU21D;63735;44.730;37.818;2023-05-29T05:21:10;21.25;72.46
75155;HTU21D;63735;44.730;37.818;2023-05-29T05:23:36;21.18;72.92
75155;HTU21D;63735;44.730;37.818;2023-05-29T05:26:03;21.08;73.19
75155;HTU21D;63735;44.730;37.818;2023-05-29T05:28:31;21.01;73.50
75155;HTU21D;63735;44.730;37.818;2023-05-29T05:30:56;20.96;73.98
75155;HTU21D;63735;44.730;37.818;2023-05-29T05:33:23;20.90;74.06
75155;HTU21D;63735;44.730;37.818;2023-05-29T05:35:49;20.85;74.28
75155;HTU21D;63735;44.730;37.818;2023-05-29T05:38:15;20.79;74.53
75155;HTU21D;63735;44.730;37.818;2023-05-29T05:40:41;20.79;74.84
75155;HTU21D;63735;44.730;37.818;2023-05-29T05:43:15;20.75;75.26
75155;HTU21D;63735;44.730;37.818;2023-05-29T05:45:58;20.68;75.83
75155;HTU21D;63735;44.730;37.818;2023-05-29T05:48:24;20.59;76.08
75155;HTU21D;63735;44.730;37.818;2023-05-29T05:50:50;20.55;76.18
75155;HTU21D;63735;44.730;37.818;2023-05-29T05:53:18;20.54;76.24
75155;HTU21D;63735;44.730;37.818;2023-05-29T05:55:44;20.56;76.26
75155;HTU21D;63735;44.730;37.818;2023-05-29T05:58:10;20.54;76.43
75155;HTU21D;63735;44.730;37.818;2023-05-29T06:00:36;20.49;76.61
75155;HTU21D;63735;44.730;37.818;2023-05-29T06:03:02;20.43;77.19
75155;HTU21D;63735;44.730;37.818;2023-05-29T06:05:49;20.37;77.30
75155;HTU21D;63735;44.730;37.818;2023-05-29T06:08:16;20.33;77.27
75155;HTU21D;63735;44.730;37.818;2023-05-29T06:10:42;20.26;77.33
75155;HTU21D;63735;44.730;37.818;2023-05-29T06:13:09;20.22;77.72
75155;HTU21D;63735;44.730;37.818;2023-05-29T06:15:44;20.26;77.92
75155;HTU21D;63735;44.730;37.818;2023-05-29T06:18:11;20.27;78.16
75155;HTU21D;63735;44.730;37.818;2023-05-29T06:20:38;20.22;78.34
75155;HTU21D;63735;44.730;37.818;2023-05-29T06:23:04;20.24;78.72
75155;HTU21D;63735;44.730;37.818;2023-05-29T06:25:30;20.24;79.19
75155;HTU21D;63735;44.730;37.818;2023-05-29T06:28:00;20.25;79.43
75155;HTU21D;63735;44.730;37.818;2023-05-29T06:30:26;20.32;79.55
75155;HTU21D;63735;44.730;37.818;2023-05-29T06:32:53;20.40;79.69
75155;HTU21D;63735;44.730;37.818;2023-05-29T06:35:24;20.41;79.88
75155;HTU21D;63735;44.730;37.818;2023-05-29T06:37:49;20.40;80.03
75155;HTU21D;63735;44.730;37.818;2023-05-29T06:40:15;20.39;80.27
75155;HTU21D;63735;44.730;37.818;2023-05-29T06:42:42;20.46;80.42
75155;HTU21D;63735;44.730;37.818;2023-05-29T06:45:14;20.41;80.48
75155;HTU21D;63735;44.730;37.818;2023-05-29T06:47:44;20.41;80.69
75155;HTU21D;63735;44.730;37.818;2023-05-29T06:50:35;20.46;80.56
75155;HTU21D;63735;44.730;37.818;2023-05-29T06:53:19;20.46;80.81
75155;HTU21D;63735;44.730;37.818;2023-05-29T06:55:49;20.42;80.90
75155;HTU21D;63735;44.730;37.818;2023-05-29T06:58:16;20.41;81.04
75155;HTU21D;63735;44.730;37.818;2023-05-29T07:04:23;20.40;80.65
75155;HTU21D;63735;44.730;37.818;2023-05-29T07:06:50;20.41;80.66
75155;HTU21D;63735;44.730;37.818;2023-05-29T07:09:17;20.47;80.71
75155;HTU21D;63735;44.730;37.818;2023-05-29T07:11:42;20.49;80.71
75155;HTU21D;63735;44.730;37.818;2023-05-29T07:14:08;20.47;80.81
75155;HTU21D;63735;44.730;37.818;2023-05-29T07:16:34;20.40;80.97
75155;HTU21D;63735;44.730;37.818;2023-05-29T07:19:04;20.36;81.03
75155;HTU21D;63735;44.730;37.818;2023-05-29T07:21:34;20.33;81.18
75155;HTU21D;63735;44.730;37.818;2023-05-29T07:24:02;20.27;81.39
75155;HTU21D;63735;44.730;37.818;2023-05-29T07:26:27;20.20;81.74
75155;HTU21D;63735;44.730;37.818;2023-05-29T07:28:53;20.20;81.94
75155;HTU21D;63735;44.730;37.818;2023-05-29T07:31:20;20.19;82.18
75155;HTU21D;63735;44.730;37.818;2023-05-29T07:33:48;20.17;82.33
75155;HTU21D;63735;44.730;37.818;2023-05-29T07:36:17;20.20;82.46
75155;HTU21D;63735;44.730;37.818;2023-05-29T07:38:45;20.22;82.49
75155;HTU21D;63735;44.730;37.818;2023-05-29T07:41:15;20.28;82.60
75155;HTU21D;63735;44.730;37.818;2023-05-29T07:43:49;20.33;82.63
75155;HTU21D;63735;44.730;37.818;2023-05-29T07:46:19;20.41;82.84
75155;HTU21D;63735;44.730;37.818;2023-05-29T07:48:48;20.45;83.04
75155;HTU21D;63735;44.730;37.818;2023-05-29T07:51:15;20.48;83.18
75155;HTU21D;63735;44.730;37.818;2023-05-29T07:53:45;20.56;83.26
75155;HTU21D;63735;44.730;37.818;2023-05-29T07:56:12;20.64;83.28
75155;HTU21D;63735;44.730;37.818;2023-05-29T07:58:39;20.72;83.26
75155;HTU21D;63735;44.730;37.818;2023-05-29T08:01:08;20.81;83.22
75155;HTU21D;63735;44.730;37.818;2023-05-29T08:03:35;20.93;83.14
75155;HTU21D;63735;44.730;37.818;2023-05-29T08:06:29;21.00;82.88
75155;HTU21D;63735;44.730;37.818;2023-05-29T08:08:55;20.95;82.83
75155;HTU21D;63735;44.730;37.818;2023-05-29T08:11:22;20.91;82.88
75155;HTU21D;63735;44.730;37.818;2023-05-29T08:13:52;20.85;82.97
75155;HTU21D;63735;44.730;37.818;2023-05-29T08:16:18;20.83;83.06
75155;HTU21D;63735;44.730;37.818;2023-05-29T08:18:44;20.84;83.03
75155;HTU21D;63735;44.730;37.818;2023-05-29T08:21:10;20.86;82.92
75155;HTU21D;63735;44.730;37.818;2023-05-29T08:23:38;20.91;82.78
75155;HTU21D;63735;44.730;37.818;2023-05-29T08:26:04;20.94;82.70
75155;HTU21D;63735;44.730;37.818;2023-05-29T08:28:29;21.01;82.65
75155;HTU21D;63735;44.730;37.818;2023-05-29T08:30:56;21.13;82.59
75155;HTU21D;63735;44.730;37.818;2023-05-29T08:33:21;21.25;82.52
75155;HTU21D;63735;44.730;37.818;2023-05-29T08:35:47;21.40;82.39
75155;HTU21D;63735;44.730;37.818;2023-05-29T08:38:13;21.53;82.33
75155;HTU21D;63735;44.730;37.818;2023-05-29T08:40:40;21.64;82.27
75155;HTU21D;63735;44.730;37.818;2023-05-29T08:43:21;21.72;82.15
75155;HTU21D;63735;44.730;37.818;2023-05-29T08:45:50;21.74;82.07
75155;HTU21D;63735;44.730;37.818;2023-05-29T08:48:19;21.70;82.10
75155;HTU21D;63735;44.730;37.818;2023-05-29T08:50:48;21.70;82.07
75155;HTU21D;63735;44.730;37.818;2023-05-29T08:53:17;21.68;81.99
75155;HTU21D;63735;44.730;37.818;2023-05-29T08:55:44;21.62;81.98
75155;HTU21D;63735;44.730;37.818;2023-05-29T08:58:17;21.57;82.02
75155;HTU21D;63735;44.730;37.818;2023-05-29T09:00:47;21.49;82.13
75155;HTU21D;63735;44.730;37.818;2023-05-29T09:03:13;21.43;82.22
75155;HTU21D;63735;44.730;37.818;2023-05-29T09:05:40;21.38;82.31
75155;HTU21D;63735;44.730;37.818;2023-05-29T09:08:09;21.38;82.46
75155;HTU21D;63735;44.730;37.818;2023-05-29T09:10:44;21.37;82.65
75155;HTU21D;63735;44.730;37.818;2023-05-29T09:13:14;21.40;82.75
75155;HTU21D;63735;44.730;37.818;2023-05-29T09:15:40;21.48;82.77
75155;HTU21D;63735;44.730;37.818;2023-05-29T09:18:08;21.62;82.69
75155;HTU21D;63735;44.730;37.818;2023-05-29T09:20:35;21.77;82.52
75155;HTU21D;63735;44.730;37.818;2023-05-29T09:23:09;21.95;82.42
75155;HTU21D;63735;44.730;37.818;2023-05-29T09:25:40;22.18;82.26
75155;HTU21D;63735;44.730;37.818;2023-05-29T09:28:08;22.46;81.88
75155;HTU21D;63735;44.730;37.818;2023-05-29T09:30:44;22.83;81.33
75155;HTU21D;63735;44.730;37.818;2023-05-29T09:33:13;23.27;80.61
75155;HTU21D;63735;44.730;37.818;2023-05-29T09:35:41;23.59;79.75
75155;HTU21D;63735;44.730;37.818;2023-05-29T09:38:08;23.57;79.79
75155;HTU21D;63735;44.730;37.818;2023-05-29T09:40:36;23.56;79.21
75155;HTU21D;63735;44.730;37.818;2023-05-29T09:43:12;23.52;78.79
75155;HTU21D;63735;44.730;37.818;2023-05-29T09:45:41;23.36;78.63
75155;HTU21D;63735;44.730;37.818;2023-05-29T09:48:08;23.13;78.69
75155;HTU21D;63735;44.730;37.818;2023-05-29T09:50:37;23.02;78.75
75155;HTU21D;63735;44.730;37.818;2023-05-29T09:53:03;22.96;78.59
75155;HTU21D;63735;44.730;37.818;2023-05-29T09:55:31;22.83;78.56
75155;HTU21D;63735;44.730;37.818;2023-05-29T09:57:58;22.68;78.63
75155;HTU21D;63735;44.730;37.818;2023-05-29T10:00:24;22.51;78.41
75155;HTU21D;63735;44.730;37.818;2023-05-29T10:02:51;22.41;78.45
75155;HTU21D;63735;44.730;37.818;2023-05-29T10:05:17;22.37;78.32
75155;HTU21D;63735;44.730;37.818;2023-05-29T10:07:44;22.23;78.43
75155;HTU21D;63735;44.730;37.818;2023-05-29T10:10:15;21.95;78.85
75155;HTU21D;63735;44.730;37.818;2023-05-29T10:12:53;21.77;79.34
75155;HTU21D;63735;44.730;37.818;2023-05-29T10:15:23;21.65;79.49
75155;HTU21D;63735;44.730;37.818;2023-05-29T10:17:52;21.51;79.70
75155;HTU21D;63735;44.730;37.818;2023-05-29T10:20:20;21.40;79.97
75155;HTU21D;63735;44.730;37.818;2023-05-29T10:22:50;21.39;80.15
75155;HTU21D;63735;44.730;37.818;2023-05-29T10:25:20;21.46;80.15
75155;HTU21D;63735;44.730;37.818;2023-05-29T10:27:49;21.55;80.02
75155;HTU21D;63735;44.730;37.818;2023-05-29T10:36:44;21.91;79.61
75155;HTU21D;63735;44.730;37.818;2023-05-29T10:39:12;22.05;79.42
75155;HTU21D;63735;44.730;37.818;2023-05-29T10:41:39;22.26;79.19
75155;HTU21D;63735;44.730;37.818;2023-05-29T10:49:25;22.64;78.32
75155;HTU21D;63735;44.730;37.818;2023-05-29T10:51:52;22.68;78.24
75155;HTU21D;63735;44.730;37.818;2023-05-29T10:54:27;22.80;78.06
75155;HTU21D;63735;44.730;37.818;2023-05-29T10:56:57;22.84;77.83
75155;HTU21D;63735;44.730;37.818;2023-05-29T10:59:24;22.69;77.85
75155;HTU21D;63735;44.730;37.818;2023-05-29T11:01:54;22.66;78.05
75155;HTU21D;63735;44.730;37.818;2023-05-29T11:06:47;22.49;77.93
75155;HTU21D;63735;44.730;37.818;2023-05-29T11:09:33;22.19;78.18
75155;HTU21D;63735;44.730;37.818;2023-05-29T11:12:22;22.05;78.41
75155;HTU21D;63735;44.730;37.818;2023-05-29T11:15:06;22.03;78.41
75155;HTU21D;63735;44.730;37.818;2023-05-29T11:20:35;22.09;78.06
75155;HTU21D;63735;44.730;37.818;2023-05-29T11:23:05;22.22;78.00
75155;HTU21D;63735;44.730;37.818;2023-05-29T11:25:35;22.37;77.86
75155;HTU21D;63735;44.730;37.818;2023-05-29T11:28:08;22.61;77.47
75155;HTU21D;63735;44.730;37.818;2023-05-29T11:30:48;22.67;76.99
75155;HTU21D;63735;44.730;37.818;2023-05-29T11:35:50;22.50;77.25
75155;HTU21D;63735;44.730;37.818;2023-05-29T11:38:19;22.42;77.14
75155;HTU21D;63735;44.730;37.818;2023-05-29T11:40:45;22.26;77.13
75155;HTU21D;63735;44.730;37.818;2023-05-29T11:43:12;22.14;77.18
75155;HTU21D;63735;44.730;37.818;2023-05-29T11:45:38;22.08;77.27
75155;HTU21D;63735;44.730;37.818;2023-05-29T11:48:04;22.10;77.11
75155;HTU21D;63735;44.730;37.818;2023-05-29T11:50:32;22.14;76.69
75155;HTU21D;63735;44.730;37.818;2023-05-29T11:52:59;22.13;76.57
75155;HTU21D;63735;44.730;37.818;2023-05-29T11:55:26;22.27;76.51
75155;HTU21D;63735;44.730;37.818;2023-05-29T11:57:59;22.39;76.45
75155;HTU21D;63735;44.730;37.818;2023-05-29T12:00:30;22.49;75.83
75155;HTU21D;63735;44.730;37.818;2023-05-29T12:02:57;22.52;75.73
75155;HTU21D;63735;44.730;37.818;2023-05-29T12:05:25;22.67;75.63
75155;HTU21D;63735;44.730;37.818;2023-05-29T12:07:52;22.84;75.67
75155;HTU21D;63735;44.730;37.818;2023-05-29T12:10:20;22.94;75.58
75155;HTU21D;63735;44.730;37.818;2023-05-29T12:12:54;22.87;75.67
75155;HTU21D;63735;44.730;37.818;2023-05-29T12:15:20;22.87;75.72
75155;HTU21D;63735;44.730;37.818;2023-05-29T12:17:49;22.93;75.64
75155;HTU21D;63735;44.730;37.818;2023-05-29T12:20:16;23.09;75.58
75155;HTU21D;63735;44.730;37.818;2023-05-29T12:22:43;23.16;74.69
75155;HTU21D;63735;44.730;37.818;2023-05-29T12:25:10;23.17;74.36
75155;HTU21D;63735;44.730;37.818;2023-05-29T12:27:38;23.09;73.96
75155;HTU21D;63735;44.730;37.818;2023-05-29T12:30:19;22.95;74.14
75155;HTU21D;63735;44.730;37.818;2023-05-29T12:32:47;22.90;74.51
75155;HTU21D;63735;44.730;37.818;2023-05-29T12:35:21;22.97;74.35
75155;HTU21D;63735;44.730;37.818;2023-05-29T12:40:25;22.62;73.80
75155;HTU21D;63735;44.730;37.818;2023-05-29T12:42:56;22.56;74.32
75155;HTU21D;63735;44.730;37.818;2023-05-29T12:45:24;22.58;74.01
75155;HTU21D;63735;44.730;37.818;2023-05-29T12:47:55;22.53;74.21
75155;HTU21D;63735;44.730;37.818;2023-05-29T12:53:04;22.61;73.96
75155;HTU21D;63735;44.730;37.818;2023-05-29T12:55:33;22.51;73.74
75155;HTU21D;63735;44.730;37.818;2023-05-29T12:58:03;22.44;74.07
75155;HTU21D;63735;44.730;37.818;2023-05-29T13:00:29;22.60;74.06
75155;HTU21D;63735;44.730;37.818;2023-05-29T13:02:56;22.62;73.37
75155;HTU21D;63735;44.730;37.818;2023-05-29T13:05:23;22.54;73.22
75155;HTU21D;63735;44.730;37.818;2023-05-29T13:07:49;22.42;73.22
75155;HTU21D;63735;44.730;37.818;2023-05-29T13:10:16;22.50;73.45
75155;HTU21D;63735;44.730;37.818;2023-05-29T13:12:42;22.69;73.34
75155;HTU21D;63735;44.730;37.818;2023-05-29T13:15:10;22.83;72.92
75155;HTU21D;63735;44.730;37.818;2023-05-29T13:17:37;22.86;72.64
75155;HTU21D;63735;44.730;37.818;2023-05-29T13:20:11;22.98;72.71
75155;HTU21D;63735;44.730;37.818;2023-05-29T13:22:38;23.06;72.12
75155;HTU21D;63735;44.730;37.818;2023-05-29T13:25:05;22.96;72.16
75155;HTU21D;63735;44.730;37.818;2023-05-29T13:27:33;22.81;72.80
75155;HTU21D;63735;44.730;37.818;2023-05-29T13:30:04;22.79;72.64
75155;HTU21D;63735;44.730;37.818;2023-05-29T13:32:33;22.80;72.20
75155;HTU21D;63735;44.730;37.818;2023-05-29T13:35:01;22.78;72.19
75155;HTU21D;63735;44.730;37.818;2023-05-29T13:37:27;22.78;71.74
75155;HTU21D;63735;44.730;37.818;2023-05-29T13:39:54;22.77;72.06
75155;HTU21D;63735;44.730;37.818;2023-05-29T13:42:20;22.76;71.97
75155;HTU21D;63735;44.730;37.818;2023-05-29T13:44:47;22.71;72.18
75155;HTU21D;63735;44.730;37.818;2023-05-29T13:47:13;22.71;72.19
75155;HTU21D;63735;44.730;37.818;2023-05-29T13:49:40;22.75;72.22
75155;HTU21D;63735;44.730;37.818;2023-05-29T13:52:06;22.82;72.01
75155;HTU21D;63735;44.730;37.818;2023-05-29T13:54:32;22.76;71.36
75155;HTU21D;63735;44.730;37.818;2023-05-29T13:57:04;22.57;71.38
75155;HTU21D;63735;44.730;37.818;2023-05-29T13:59:34;22.48;71.81
75155;HTU21D;63735;44.730;37.818;2023-05-29T14:02:01;22.49;71.93
75155;HTU21D;63735;44.730;37.818;2023-05-29T14:04:29;22.49;71.87
75155;HTU21D;63735;44.730;37.818;2023-05-29T14:06:56;22.51;71.85
75155;HTU21D;63735;44.730;37.818;2023-05-29T14:09:22;22.48;72.15
75155;HTU21D;63735;44.730;37.818;2023-05-29T14:11:58;22.57;72.13
75155;HTU21D;63735;44.730;37.818;2023-05-29T14:14:24;22.57;72.13
75155;HTU21D;63735;44.730;37.818;2023-05-29T14:16:50;22.32;72.45
75155;HTU21D;63735;44.730;37.818;2023-05-29T14:19:17;22.23;72.83
75155;HTU21D;63735;44.730;37.818;2023-05-29T14:21:44;22.21;72.62
75155;HTU21D;63735;44.730;37.818;2023-05-29T14:24:10;22.23;72.58
75155;HTU21D;63735;44.730;37.818;2023-05-29T14:26:36;22.21;72.41
75155;HTU21D;63735;44.730;37.818;2023-05-29T14:29:03;22.17;72.38
75155;HTU21D;63735;44.730;37.818;2023-05-29T14:31:29;22.10;72.52
75155;HTU21D;63735;44.730;37.818;2023-05-29T14:33:55;22.04;72.72
75155;HTU21D;63735;44.730;37.818;2023-05-29T14:36:21;22.03;72.87
75155;HTU21D;63735;44.730;37.818;2023-05-29T14:38:47;22.07;72.90
75155;HTU21D;63735;44.730;37.818;2023-05-29T14:41:15;22.12;72.82
75155;HTU21D;63735;44.730;37.818;2023-05-29T14:43:42;22.10;72.63
75155;HTU21D;63735;44.730;37.818;2023-05-29T14:46:09;22.04;72.61
75155;HTU21D;63735;44.730;37.818;2023-05-29T14:48:35;22.02;72.67
75155;HTU21D;63735;44.730;37.818;2023-05-29T14:51:01;22.02;72.67
75155;HTU21D;63735;44.730;37.818;2023-05-29T14:53:27;21.99;72.65
75155;HTU21D;63735;44.730;37.818;2023-05-29T14:55:53;22.02;72.67
75155;HTU21D;63735;44.730;37.818;2023-05-29T14:58:21;22.06;72.74
75155;HTU21D;63735;44.730;37.818;2023-05-29T15:00:47;22.05;72.64
75155;HTU21D;63735;44.730;37.818;2023-05-29T15:03:13;21.99;72.81
75155;HTU21D;63735;44.730;37.818;2023-05-29T15:05:39;22.01;72.93
75155;HTU21D;63735;44.730;37.818;2023-05-29T15:08:05;21.97;72.88
75155;HTU21D;63735;44.730;37.818;2023-05-29T15:10:31;21.96;72.92
75155;HTU21D;63735;44.730;37.818;2023-05-29T15:12:58;21.90;72.97
75155;HTU21D;63735;44.730;37.818;2023-05-29T15:15:25;21.87;72.99
75155;HTU21D;63735;44.730;37.818;2023-05-29T15:17:52;21.81;73.04
75155;HTU21D;63735;44.730;37.818;2023-05-29T15:20:24;21.79;73.06
75155;HTU21D;63735;44.730;37.818;2023-05-29T15:22:51;21.72;73.15
75155;HTU21D;63735;44.730;37.818;2023-05-29T15:25:18;21.62;73.42
75155;HTU21D;63735;44.730;37.818;2023-05-29T15:27:44;21.59;73.51
75155;HTU21D;63735;44.730;37.818;2023-05-29T15:30:13;21.57;73.59
75155;HTU21D;63735;44.730;37.818;2023-05-29T15:32:40;21.57;73.61
75155;HTU21D;63735;44.730;37.818;2023-05-29T15:35:11;21.49;73.64
75155;HTU21D;63735;44.730;37.818;2023-05-29T15:37:38;21.42;73.79
75155;HTU21D;63735;44.730;37.818;2023-05-29T15:40:05;21.36;73.83
75155;HTU21D;63735;44.730;37.818;2023-05-29T15:42:31;21.32;73.90
75155;HTU21D;63735;44.730;37.818;2023-05-29T15:44:58;21.28;73.99
75155;HTU21D;63735;44.730;37.818;2023-05-29T15:47:23;21.25;74.06
75155;HTU21D;63735;44.730;37.818;2023-05-29T15:49:49;21.28;74.09
75155;HTU21D;63735;44.730;37.818;2023-05-29T15:52:15;21.30;74.04